KIDI

Indiana County / Jimmy Stewart Field / Airport

Indiana, Pennsylvania, USA
METAR KIDI 241215Z AUTO 00000KT 10SM SCT012 BKN017 OVC075 08/07 A3022 RMK A01
Observed Flight Rules
Feb-24 @ 12:15 UTC (6 minutes ago) Marginal Visual Flight Rules
Wind Visibility Clouds
Calm 10 miles
  • Scattered at 1,200' AGL
  • Broken at 1,700' AGL
  • Overcast at 7,500' AGL
Temperatures Readings
Current 8°C / 46°F
Dewpoint 7°C / 45°F
Humidity 93%
Altimeter 30.22" Hg
Pressure 1023 hPa
Elevation 429
METAR KIDI 241215Z AUTO 00000KT 10SM SCT012 BKN017 OVC075 08/07 A3022 RMK A01
Observed Flight Rules
Feb-24 @ 12:15 UTC
(6 minutes ago)
MVFR
Wind Visibility
Calm 10 miles
Clouds
  • Scattered at 1,200' AGL
  • Broken at 1,700' AGL
  • Overcast at 7,500' AGL
Temperature Dewpoint
8°C / 46°F 7°C / 45°F
Humidity Altimeter Pressure
93% 30.22" Hg 1023 hPa